createdAt,value
2019-04-30T00:00:15.853Z,0.00
2019-04-30T00:01:17.040Z,0.00
2019-04-30T00:02:15.739Z,0.00
2019-04-30T00:03:15.950Z,0.00
2019-04-30T00:04:15.644Z,0.00
2019-04-30T00:05:15.171Z,0.00
2019-04-30T00:06:15.587Z,0.00
2019-04-30T00:07:15.493Z,0.00
2019-04-30T00:08:15.895Z,0.00
2019-04-30T00:09:15.138Z,0.00
2019-04-30T00:10:15.379Z,0.00
2019-04-30T00:11:15.920Z,0.00
2019-04-30T00:12:15.555Z,0.00
2019-04-30T00:13:17.828Z,0.00
2019-04-30T00:14:15.271Z,0.00
2019-04-30T00:15:17.913Z,0.00
2019-04-30T00:16:15.245Z,0.00
2019-04-30T00:17:15.855Z,0.00
2019-04-30T00:18:15.428Z,0.00
2019-04-30T00:19:15.726Z,0.00
2019-04-30T00:20:15.144Z,0.00
2019-04-30T00:21:17.142Z,0.00
2019-04-30T00:22:13.449Z,0.00
2019-04-30T00:23:12.436Z,0.00
2019-04-30T00:24:12.456Z,0.00
2019-04-30T00:25:12.436Z,0.00
2019-04-30T00:26:12.416Z,0.00
2019-04-30T00:27:12.414Z,0.00
2019-04-30T00:28:12.374Z,0.00
2019-04-30T00:29:12.380Z,0.00
2019-04-30T00:30:12.397Z,0.00
2019-04-30T00:31:12.381Z,0.00
2019-04-30T00:32:12.342Z,0.00
2019-04-30T00:33:15.206Z,0.00
2019-04-30T00:34:15.166Z,0.00
2019-04-30T00:35:16.228Z,0.00
2019-04-30T00:36:14.847Z,0.00
2019-04-30T00:37:13.891Z,0.00
2019-04-30T00:38:12.284Z,0.00
2019-04-30T00:39:13.217Z,0.00
2019-04-30T00:40:12.289Z,0.00
2019-04-30T00:41:12.248Z,0.00
2019-04-30T00:42:12.239Z,0.00
2019-04-30T00:43:12.237Z,0.00
2019-04-30T00:44:12.236Z,0.00
2019-04-30T00:45:12.215Z,0.00
2019-04-30T00:46:12.205Z,0.00
2019-04-30T00:47:12.186Z,0.00
2019-04-30T00:48:12.178Z,0.00
2019-04-30T00:49:18.550Z,0.00
2019-04-30T00:50:14.858Z,0.00
2019-04-30T00:51:18.156Z,0.00
2019-04-30T00:52:15.228Z,0.00
2019-04-30T00:53:14.029Z,0.00
2019-04-30T00:54:12.114Z,0.00
2019-04-30T00:55:12.125Z,0.00
2019-04-30T00:56:12.104Z,0.00
2019-04-30T00:57:12.074Z,0.00
2019-04-30T00:58:12.053Z,0.00
2019-04-30T00:59:12.051Z,0.00
2019-04-30T01:00:12.054Z,0.00
2019-04-30T01:01:12.059Z,0.00
2019-04-30T01:02:12.042Z,0.00
2019-04-30T01:03:12.012Z,0.00
2019-04-30T01:04:12.002Z,0.00
2019-04-30T01:05:11.982Z,0.00
2019-04-30T01:06:11.981Z,0.00
2019-04-30T01:07:11.987Z,0.00
2019-04-30T01:08:11.972Z,0.00
2019-04-30T01:09:11.946Z,0.00
2019-04-30T01:10:11.951Z,0.00
2019-04-30T01:11:11.929Z,0.00
2019-04-30T01:12:11.921Z,0.00
2019-04-30T01:13:12.180Z,0.00
2019-04-30T01:14:11.894Z,0.00
2019-04-30T01:15:14.415Z,0.00
2019-04-30T01:16:11.879Z,0.00
2019-04-30T01:17:12.361Z,0.00
2019-04-30T01:18:11.857Z,0.00
2019-04-30T01:19:26.637Z,0.00
2019-04-30T01:20:12.809Z,0.00
2019-04-30T01:21:11.827Z,0.00
2019-04-30T01:22:11.825Z,0.00
2019-04-30T01:23:11.811Z,0.00
2019-04-30T01:24:11.785Z,0.00
2019-04-30T01:25:13.494Z,0.00
2019-04-30T01:26:11.761Z,0.00
2019-04-30T01:27:11.743Z,0.00
2019-04-30T01:28:16.152Z,0.00
2019-04-30T01:29:12.725Z,0.00
2019-04-30T01:30:13.414Z,0.00
2019-04-30T01:31:12.723Z,0.00
2019-04-30T01:32:17.562Z,0.00
2019-04-30T01:33:12.729Z,0.00
2019-04-30T01:34:14.078Z,0.00
2019-04-30T01:35:11.671Z,0.00
2019-04-30T01:36:13.314Z,0.00
2019-04-30T01:37:11.653Z,0.00
2019-04-30T01:38:12.824Z,0.00
2019-04-30T01:39:11.651Z,0.00
2019-04-30T01:40:13.936Z,0.00
2019-04-30T01:41:11.599Z,0.00
2019-04-30T01:42:11.603Z,0.00
2019-04-30T01:43:11.599Z,0.00
2019-04-30T01:44:12.166Z,0.00
2019-04-30T01:45:11.549Z,0.00
2019-04-30T01:46:13.795Z,0.00
2019-04-30T01:47:11.539Z,0.00
2019-04-30T01:48:12.809Z,0.00
2019-04-30T01:49:11.549Z,0.00
2019-04-30T01:50:11.489Z,0.00
2019-04-30T01:51:13.469Z,0.00
2019-04-30T01:52:12.469Z,0.00
2019-04-30T01:53:13.241Z,0.00
2019-04-30T01:54:13.774Z,0.00
2019-04-30T01:55:12.447Z,0.00
2019-04-30T01:56:11.420Z,0.00
2019-04-30T01:57:11.437Z,0.00
2019-04-30T01:58:11.423Z,0.00
2019-04-30T01:59:11.435Z,0.00
2019-04-30T02:00:11.395Z,0.00
2019-04-30T02:01:11.391Z,0.00
2019-04-30T02:02:11.366Z,0.00
2019-04-30T02:03:11.397Z,0.00
2019-04-30T02:04:11.373Z,0.00
2019-04-30T02:05:11.377Z,0.00
2019-04-30T02:06:11.577Z,0.00
2019-04-30T02:07:11.305Z,0.00
2019-04-30T02:08:11.350Z,0.00
2019-04-30T02:09:11.311Z,0.00
2019-04-30T02:10:11.321Z,0.00
2019-04-30T02:11:11.280Z,0.00
2019-04-30T02:12:11.262Z,0.00
2019-04-30T02:13:11.286Z,0.00
2019-04-30T02:14:11.243Z,0.00
2019-04-30T02:15:11.238Z,0.00
2019-04-30T02:16:11.249Z,0.00
2019-04-30T02:17:11.249Z,0.00
2019-04-30T02:18:11.211Z,0.00
2019-04-30T02:19:11.191Z,0.00
2019-04-30T02:20:11.209Z,0.00
2019-04-30T02:21:11.459Z,0.00
2019-04-30T02:22:11.176Z,0.00
2019-04-30T02:23:11.167Z,0.00
2019-04-30T02:24:11.253Z,0.00
2019-04-30T02:25:11.130Z,0.00
2019-04-30T02:26:11.147Z,0.00
2019-04-30T02:27:11.116Z,0.00
2019-04-30T02:28:11.131Z,0.00
2019-04-30T02:29:11.082Z,0.00
2019-04-30T02:30:11.507Z,0.00
2019-04-30T02:31:11.105Z,0.00
2019-04-30T02:32:11.089Z,0.00
2019-04-30T02:33:11.063Z,0.00
2019-04-30T02:34:11.015Z,0.00
2019-04-30T02:35:11.014Z,0.00
2019-04-30T02:36:11.043Z,0.00
2019-04-30T02:37:11.003Z,0.00
2019-04-30T02:38:11.003Z,0.00
2019-04-30T02:39:11.309Z,0.00
2019-04-30T02:40:10.989Z,0.00
2019-04-30T02:41:10.963Z,0.00
2019-04-30T02:42:13.239Z,0.00
2019-04-30T02:43:10.997Z,0.00
2019-04-30T02:44:10.926Z,0.00
2019-04-30T02:45:10.936Z,0.00
2019-04-30T02:46:10.909Z,0.00
2019-04-30T02:47:10.939Z,0.00
2019-04-30T02:48:11.799Z,0.00
2019-04-30T02:49:10.913Z,0.00
2019-04-30T02:50:17.634Z,0.00
2019-04-30T02:51:11.845Z,0.00
2019-04-30T02:52:10.868Z,0.00
2019-04-30T02:53:10.836Z,0.00
2019-04-30T02:54:10.836Z,0.00
2019-04-30T02:55:10.796Z,0.00
2019-04-30T02:56:10.777Z,0.00
2019-04-30T02:57:11.721Z,0.00
2019-04-30T02:58:10.782Z,0.00
2019-04-30T02:59:10.819Z,0.00
2019-04-30T03:00:10.769Z,0.00
2019-04-30T03:01:10.741Z,0.00
2019-04-30T03:02:11.793Z,0.00
2019-04-30T03:03:10.732Z,0.00
2019-04-30T03:04:10.728Z,0.00
2019-04-30T03:05:13.701Z,0.00
2019-04-30T03:06:11.571Z,0.00
2019-04-30T03:07:10.702Z,0.00
2019-04-30T03:08:10.695Z,0.00
2019-04-30T03:09:11.005Z,0.00
2019-04-30T03:10:10.672Z,0.00
2019-04-30T03:11:10.632Z,0.00
2019-04-30T03:12:10.622Z,0.00
2019-04-30T03:13:10.651Z,0.00
2019-04-30T03:14:10.981Z,0.00
2019-04-30T03:15:10.626Z,0.00
2019-04-30T03:16:10.571Z,0.00
2019-04-30T03:17:10.560Z,0.00
2019-04-30T03:18:10.593Z,0.00
2019-04-30T03:19:10.556Z,0.00
2019-04-30T03:20:15.242Z,0.00
2019-04-30T03:21:11.535Z,4.00
2019-04-30T03:22:10.539Z,4.00
2019-04-30T03:23:10.548Z,0.00
2019-04-30T03:24:11.049Z,4.00
2019-04-30T03:25:10.487Z,4.00
2019-04-30T03:26:12.955Z,4.00
2019-04-30T03:27:10.457Z,8.00
2019-04-30T03:28:10.464Z,8.00
2019-04-30T03:29:11.568Z,8.00
2019-04-30T03:30:11.869Z,8.00
2019-04-30T03:31:12.462Z,12.00
2019-04-30T03:32:13.506Z,12.00
2019-04-30T03:33:12.862Z,12.00
2019-04-30T03:34:16.967Z,16.00
2019-04-30T03:35:12.686Z,24.00
2019-04-30T03:36:12.675Z,24.00
2019-04-30T03:37:10.356Z,28.00
2019-04-30T03:38:10.377Z,32.00
2019-04-30T03:39:11.129Z,32.00
2019-04-30T03:40:13.169Z,36.00
2019-04-30T03:41:10.319Z,36.00
2019-04-30T03:42:10.301Z,44.00
2019-04-30T03:43:10.483Z,48.00
2019-04-30T03:44:20.358Z,64.00
2019-04-30T03:45:11.289Z,76.00
2019-04-30T03:46:10.325Z,80.00
2019-04-30T03:47:10.852Z,84.00
2019-04-30T03:48:10.436Z,88.00
2019-04-30T03:49:13.179Z,96.00
2019-04-30T03:50:10.252Z,108.00
2019-04-30T03:51:10.732Z,108.00
2019-04-30T03:52:13.310Z,100.00
2019-04-30T03:53:10.554Z,108.00
2019-04-30T03:54:10.471Z,108.00
2019-04-30T03:55:10.197Z,120.00
2019-04-30T03:56:10.132Z,140.00
2019-04-30T03:57:10.848Z,144.00
2019-04-30T03:58:10.136Z,160.00
2019-04-30T03:59:10.889Z,188.00
2019-04-30T04:00:10.112Z,228.00
2019-04-30T04:01:10.376Z,252.00
2019-04-30T04:02:12.856Z,300.00
2019-04-30T04:03:10.305Z,364.00
2019-04-30T04:04:10.237Z,420.00
2019-04-30T04:05:10.301Z,404.00
2019-04-30T04:06:10.088Z,400.00
2019-04-30T04:07:10.338Z,412.00
2019-04-30T04:08:10.016Z,476.00
2019-04-30T04:09:10.373Z,512.00
2019-04-30T04:10:10.262Z,480.00
2019-04-30T04:11:10.178Z,548.00
2019-04-30T04:12:12.070Z,600.00
2019-04-30T04:13:10.426Z,600.00
2019-04-30T04:14:09.945Z,572.00
2019-04-30T04:15:10.619Z,568.00
2019-04-30T04:16:09.948Z,596.00
2019-04-30T04:17:09.979Z,772.00
2019-04-30T04:18:10.680Z,976.00
2019-04-30T04:19:09.919Z,1092.00
2019-04-30T04:20:10.732Z,1120.00
2019-04-30T04:21:16.487Z,1148.00
2019-04-30T04:22:12.350Z,1160.00
2019-04-30T04:23:09.866Z,1236.00
2019-04-30T04:24:10.611Z,1352.00
2019-04-30T04:25:13.179Z,1448.00
2019-04-30T04:26:09.846Z,1560.00
2019-04-30T04:27:09.841Z,1612.00
2019-04-30T04:28:10.225Z,1660.00
2019-04-30T04:29:12.428Z,1620.00
2019-04-30T04:30:10.700Z,1472.00
2019-04-30T04:31:09.776Z,1460.00
2019-04-30T04:32:10.733Z,1524.00
2019-04-30T04:33:10.237Z,1612.00
2019-04-30T04:34:09.738Z,1672.00
2019-04-30T04:35:12.732Z,1792.00
2019-04-30T04:36:09.711Z,1804.00
2019-04-30T04:37:10.162Z,1812.00
2019-04-30T04:38:12.245Z,1992.00
2019-04-30T04:39:09.908Z,2244.00
2019-04-30T04:40:09.721Z,2404.00
2019-04-30T04:41:10.337Z,2332.00
2019-04-30T04:42:10.265Z,2068.00
2019-04-30T04:43:10.434Z,2136.00
2019-04-30T04:44:12.928Z,2412.00
2019-04-30T04:45:10.082Z,2528.00
2019-04-30T04:46:09.645Z,2628.00
2019-04-30T04:47:11.918Z,2812.00
2019-04-30T04:48:09.715Z,2644.00
2019-04-30T04:49:09.595Z,2544.00
2019-04-30T04:50:10.322Z,2432.00
2019-04-30T04:51:27.228Z,2188.00
2019-04-30T04:52:10.573Z,2236.00
2019-04-30T04:53:11.486Z,2424.00
2019-04-30T04:54:10.420Z,2620.00
2019-04-30T04:55:10.218Z,2604.00
2019-04-30T04:56:10.118Z,2572.00
2019-04-30T04:57:17.693Z,2652.00
2019-04-30T04:58:12.824Z,3056.00
2019-04-30T04:59:10.269Z,3048.00
2019-04-30T05:00:10.587Z,2796.00
2019-04-30T05:01:11.907Z,3220.00
2019-04-30T05:02:09.935Z,3580.00
2019-04-30T05:03:09.578Z,3636.00
2019-04-30T05:04:11.862Z,3576.00
2019-04-30T05:05:09.736Z,3848.00
2019-04-30T05:06:11.725Z,4180.00
2019-04-30T05:07:09.426Z,4784.00
2019-04-30T05:08:09.374Z,4916.00
2019-04-30T05:09:09.819Z,5032.00
2019-04-30T05:10:09.455Z,5288.00
2019-04-30T05:11:09.616Z,5348.00
2019-04-30T05:12:09.353Z,5548.00
2019-04-30T05:13:09.410Z,5812.00
2019-04-30T05:14:10.937Z,5792.00
2019-04-30T05:15:09.679Z,5524.00
2019-04-30T05:16:09.363Z,4784.00
2019-04-30T05:17:09.874Z,4256.00
2019-04-30T05:18:09.290Z,4348.00
2019-04-30T05:19:09.267Z,4424.00
2019-04-30T05:20:09.977Z,3900.00
2019-04-30T05:21:09.248Z,4024.00
2019-04-30T05:22:09.287Z,4544.00
2019-04-30T05:23:09.514Z,4244.00
2019-04-30T05:24:09.202Z,4328.00
2019-04-30T05:25:09.209Z,4468.00
2019-04-30T05:26:11.032Z,4152.00
2019-04-30T05:27:09.254Z,4064.00
2019-04-30T05:28:09.168Z,3840.00
2019-04-30T05:29:09.555Z,4064.00
2019-04-30T05:30:09.735Z,4060.00
2019-04-30T05:31:09.121Z,4484.00
2019-04-30T05:32:09.479Z,5660.00
2019-04-30T05:33:09.116Z,6604.00
2019-04-30T05:34:10.330Z,6172.00
2019-04-30T05:35:09.532Z,5704.00
2019-04-30T05:36:09.392Z,5648.00
2019-04-30T05:37:09.106Z,5620.00
2019-04-30T05:38:09.409Z,5332.00
2019-04-30T05:39:09.044Z,5712.00
2019-04-30T05:40:09.345Z,5532.00
2019-04-30T05:41:09.411Z,5308.00
2019-04-30T05:42:09.011Z,5588.00
2019-04-30T05:43:11.239Z,5924.00
2019-04-30T05:44:09.181Z,6072.00
2019-04-30T05:45:09.481Z,6544.00
2019-04-30T05:46:11.028Z,7140.00
2019-04-30T05:47:09.384Z,6636.00
2019-04-30T05:48:08.989Z,6116.00
2019-04-30T05:49:09.074Z,6084.00
2019-04-30T05:50:09.278Z,6276.00
2019-04-30T05:51:09.071Z,6368.00
2019-04-30T05:52:09.141Z,6608.00
2019-04-30T05:53:09.096Z,6928.00
2019-04-30T05:54:09.156Z,7748.00
2019-04-30T05:55:08.907Z,8028.00
2019-04-30T05:56:09.396Z,8860.00
2019-04-30T05:57:09.544Z,8708.00
2019-04-30T05:58:09.371Z,7344.00
2019-04-30T05:59:09.055Z,7368.00
2019-04-30T06:00:10.013Z,6372.00
2019-04-30T06:01:09.687Z,6124.00
2019-04-30T06:02:11.296Z,6736.00
2019-04-30T06:03:09.422Z,6888.00
2019-04-30T06:04:09.512Z,7088.00
2019-04-30T06:05:08.883Z,6940.00
2019-04-30T06:06:11.304Z,7292.00
2019-04-30T06:07:08.785Z,7500.00
2019-04-30T06:08:09.281Z,7104.00
2019-04-30T06:09:14.816Z,6928.00
2019-04-30T06:10:09.745Z,7340.00
2019-04-30T06:11:09.399Z,8040.00
2019-04-30T06:12:11.233Z,8644.00
2019-04-30T06:13:09.184Z,8856.00
2019-04-30T06:14:08.739Z,8924.00
2019-04-30T06:15:09.055Z,8724.00
2019-04-30T06:16:08.854Z,8204.00
2019-04-30T06:17:09.747Z,8040.00
2019-04-30T06:18:13.424Z,8160.00
2019-04-30T06:19:09.631Z,7944.00
2019-04-30T06:20:17.782Z,8224.00
2019-04-30T06:21:09.601Z,8520.00
2019-04-30T06:22:10.792Z,8764.00
2019-04-30T06:23:09.584Z,10212.00
2019-04-30T06:24:10.686Z,9304.00
2019-04-30T06:25:10.842Z,9440.00
2019-04-30T06:26:10.694Z,9540.00
2019-04-30T06:27:10.598Z,10340.00
2019-04-30T06:28:09.718Z,9728.00
2019-04-30T06:29:09.201Z,9312.00
2019-04-30T06:30:11.820Z,10172.00
2019-04-30T06:31:09.117Z,11336.00
2019-04-30T06:32:08.737Z,12696.00
2019-04-30T06:33:09.318Z,13532.00
2019-04-30T06:34:08.623Z,11628.00
2019-04-30T06:35:09.160Z,10888.00
2019-04-30T06:36:08.606Z,10956.00
2019-04-30T06:37:09.642Z,9944.00
2019-04-30T06:38:08.662Z,9136.00
2019-04-30T06:39:08.709Z,9056.00
2019-04-30T06:40:09.431Z,9100.00
2019-04-30T06:41:08.683Z,8756.00
2019-04-30T06:42:12.668Z,9052.00
2019-04-30T06:43:09.138Z,9068.00
2019-04-30T06:44:09.673Z,8824.00
2019-04-30T06:45:09.161Z,9556.00
2019-04-30T06:46:08.814Z,10864.00
2019-04-30T06:47:09.083Z,10512.00
2019-04-30T06:48:08.935Z,11760.00
2019-04-30T06:49:09.480Z,13288.00
2019-04-30T06:50:09.715Z,12732.00
2019-04-30T06:51:09.075Z,13308.00
2019-04-30T06:52:19.569Z,13288.00
2019-04-30T06:53:09.534Z,13180.00
2019-04-30T06:54:08.543Z,12888.00
2019-04-30T06:55:09.458Z,12672.00
2019-04-30T06:56:08.945Z,12300.00
2019-04-30T06:57:11.805Z,12364.00
2019-04-30T06:58:14.716Z,13168.00
2019-04-30T06:59:09.285Z,13440.00
2019-04-30T07:00:09.881Z,12712.00
2019-04-30T07:01:09.486Z,13108.00
2019-04-30T07:02:09.088Z,15604.00
2019-04-30T07:03:09.573Z,15112.00
2019-04-30T07:04:08.139Z,14636.00
2019-04-30T07:05:09.957Z,13268.00
2019-04-30T07:06:08.473Z,13324.00
2019-04-30T07:07:09.109Z,12668.00
2019-04-30T07:08:09.858Z,12092.00
2019-04-30T07:09:08.819Z,12840.00
2019-04-30T07:10:10.098Z,13364.00
2019-04-30T07:11:11.185Z,13928.00
2019-04-30T07:12:09.075Z,13932.00
2019-04-30T07:13:08.765Z,13936.00
2019-04-30T07:14:09.625Z,13504.00
2019-04-30T07:15:08.689Z,13088.00
2019-04-30T07:16:08.335Z,14236.00
2019-04-30T07:17:09.493Z,18368.00
2019-04-30T07:18:09.078Z,21120.00
2019-04-30T07:19:09.322Z,16992.00
2019-04-30T07:20:07.976Z,15196.00
2019-04-30T07:21:08.738Z,16736.00
2019-04-30T07:22:09.098Z,18720.00
2019-04-30T07:23:09.345Z,18336.00
2019-04-30T07:24:09.370Z,16672.00
2019-04-30T07:25:09.522Z,16224.00
2019-04-30T07:26:09.041Z,17920.00
2019-04-30T07:27:09.390Z,17856.00
2019-04-30T07:28:09.067Z,18464.00
2019-04-30T07:29:09.557Z,17120.00
2019-04-30T07:30:10.032Z,15604.00
2019-04-30T07:31:14.052Z,14736.00
2019-04-30T07:32:09.402Z,15188.00
2019-04-30T07:33:09.521Z,15552.00
2019-04-30T07:34:09.293Z,15484.00
2019-04-30T07:35:09.569Z,16768.00
2019-04-30T07:36:09.601Z,19616.00
2019-04-30T07:37:16.315Z,16576.00
2019-04-30T07:38:09.434Z,16112.00
2019-04-30T07:39:09.996Z,18528.00
2019-04-30T07:40:09.115Z,18400.00
2019-04-30T07:41:09.600Z,15992.00
2019-04-30T07:42:09.247Z,15776.00
2019-04-30T07:43:09.070Z,15784.00
2019-04-30T07:44:10.766Z,18624.00
2019-04-30T07:45:09.660Z,20352.00
2019-04-30T07:46:09.285Z,18880.00
2019-04-30T07:47:15.507Z,19776.00
2019-04-30T07:48:09.341Z,19168.00
2019-04-30T07:49:09.907Z,18560.00
2019-04-30T07:50:10.291Z,18176.00
2019-04-30T07:51:10.350Z,17056.00
2019-04-30T07:52:10.831Z,17440.00
2019-04-30T07:53:10.595Z,18400.00
2019-04-30T07:54:09.158Z,21504.00
2019-04-30T07:55:09.651Z,26528.00
2019-04-30T07:56:23.520Z,31552.00
2019-04-30T07:57:09.495Z,33984.00
2019-04-30T07:58:09.007Z,23936.00
2019-04-30T07:59:10.864Z,22368.00
2019-04-30T08:00:09.549Z,20384.00
2019-04-30T08:01:10.324Z,20384.00
2019-04-30T08:02:14.322Z,20960.00
2019-04-30T08:03:10.772Z,20096.00
2019-04-30T08:04:08.828Z,18112.00
2019-04-30T08:05:10.337Z,18656.00
2019-04-30T08:06:10.070Z,20544.00
2019-04-30T08:07:09.514Z,22016.00
2019-04-30T08:08:20.241Z,21248.00
2019-04-30T08:09:10.316Z,21312.00
2019-04-30T08:10:08.725Z,18368.00
2019-04-30T08:11:09.238Z,20512.00
2019-04-30T08:12:09.367Z,20928.00
2019-04-30T08:13:13.771Z,20768.00
2019-04-30T08:14:09.822Z,22144.00
2019-04-30T08:15:09.487Z,26656.00
2019-04-30T08:16:07.364Z,22880.00
2019-04-30T08:17:08.862Z,29344.00
2019-04-30T08:18:08.708Z,34304.00
2019-04-30T08:19:09.020Z,30464.00
2019-04-30T08:20:08.719Z,30176.00
2019-04-30T08:21:09.472Z,27136.00
2019-04-30T08:22:09.502Z,23712.00
2019-04-30T08:23:20.193Z,25184.00
2019-04-30T08:24:09.235Z,27808.00
2019-04-30T08:25:07.254Z,27136.00
2019-04-30T08:26:08.862Z,23968.00
2019-04-30T08:27:09.572Z,23968.00
2019-04-30T08:28:08.965Z,25536.00
2019-04-30T08:29:07.214Z,29760.00
2019-04-30T08:30:20.658Z,33472.00
2019-04-30T08:31:08.994Z,32640.00
2019-04-30T08:32:09.019Z,32864.00
2019-04-30T08:33:09.296Z,32096.00
2019-04-30T08:34:10.701Z,25888.00
2019-04-30T08:35:07.162Z,25600.00
2019-04-30T08:36:07.144Z,25312.00
2019-04-30T08:37:15.314Z,23488.00
2019-04-30T08:38:10.575Z,23904.00
2019-04-30T08:39:07.111Z,24896.00
2019-04-30T08:40:08.690Z,23232.00
2019-04-30T08:41:08.859Z,22880.00
2019-04-30T08:42:08.878Z,23296.00
2019-04-30T08:43:07.059Z,24832.00
2019-04-30T08:44:07.040Z,26880.00
2019-04-30T08:45:07.026Z,27456.00
2019-04-30T08:46:07.003Z,25088.00
2019-04-30T08:47:08.639Z,22112.00
2019-04-30T08:48:08.987Z,21664.00
2019-04-30T08:49:09.365Z,24064.00
2019-04-30T08:50:07.013Z,25536.00
2019-04-30T08:51:08.973Z,28000.00
2019-04-30T08:52:06.973Z,27616.00
2019-04-30T08:53:06.937Z,25184.00
2019-04-30T08:54:06.947Z,23328.00
2019-04-30T08:55:14.203Z,22432.00
2019-04-30T08:56:09.625Z,17760.00
2019-04-30T08:57:08.512Z,17728.00
2019-04-30T08:58:12.025Z,18304.00
2019-04-30T08:59:08.742Z,16236.00
2019-04-30T09:00:06.856Z,13516.00
2019-04-30T09:01:08.649Z,15772.00
2019-04-30T09:02:15.234Z,21216.00
2019-04-30T09:03:09.386Z,23552.00
2019-04-30T09:04:07.723Z,24512.00
2019-04-30T09:05:06.812Z,27648.00
2019-04-30T09:06:06.799Z,32928.00
2019-04-30T09:07:10.121Z,33248.00
2019-04-30T09:08:06.777Z,31424.00
2019-04-30T09:09:06.785Z,29728.00
2019-04-30T09:10:06.754Z,25856.00
2019-04-30T09:11:19.849Z,23040.00
2019-04-30T09:12:09.829Z,24800.00
2019-04-30T09:13:06.719Z,25024.00
2019-04-30T09:14:08.497Z,25536.00
2019-04-30T09:15:06.693Z,27296.00
2019-04-30T09:16:06.692Z,27840.00
2019-04-30T09:17:06.675Z,28640.00
2019-04-30T09:18:11.714Z,30048.00
2019-04-30T09:19:09.636Z,29824.00
2019-04-30T09:20:06.633Z,28192.00
2019-04-30T09:21:08.860Z,30464.00
2019-04-30T09:22:14.440Z,36256.00
2019-04-30T09:23:10.968Z,38240.00
2019-04-30T09:24:06.605Z,35072.00
2019-04-30T09:25:06.604Z,37344.00
2019-04-30T09:26:08.549Z,37952.00
2019-04-30T09:27:06.567Z,47936.00
2019-04-30T09:28:08.553Z,60288.00
2019-04-30T09:29:06.563Z,38720.00
2019-04-30T09:30:06.542Z,29760.00
2019-04-30T09:31:08.623Z,34752.00
2019-04-30T09:32:06.527Z,40032.00
2019-04-30T09:33:06.504Z,39648.00
2019-04-30T09:34:15.268Z,51616.00
2019-04-30T09:35:09.502Z,39168.00
2019-04-30T09:36:06.463Z,37088.00
2019-04-30T09:37:06.479Z,31040.00
2019-04-30T09:38:06.443Z,32000.00
2019-04-30T09:39:08.775Z,40160.00
2019-04-30T09:40:16.278Z,40768.00
2019-04-30T09:41:09.164Z,36032.00
2019-04-30T09:42:06.401Z,31552.00
2019-04-30T09:43:06.397Z,29824.00
2019-04-30T09:44:06.381Z,35776.00
2019-04-30T09:45:06.435Z,37984.00
2019-04-30T09:46:19.045Z,34144.00
2019-04-30T09:47:08.906Z,44608.00
2019-04-30T09:48:06.341Z,77728.00
2019-04-30T09:49:06.338Z,47296.00
2019-04-30T09:50:06.326Z,42368.00
2019-04-30T09:51:06.809Z,45728.00
2019-04-30T09:52:06.341Z,55456.00
2019-04-30T09:53:06.279Z,54496.00
2019-04-30T09:54:06.907Z,53664.00
2019-04-30T09:55:06.372Z,70816.00
2019-04-30T09:56:06.273Z,42016.00
2019-04-30T09:57:06.251Z,51456.00
2019-04-30T09:58:16.295Z,91392.00
2019-04-30T09:59:09.012Z,95808.00
2019-04-30T10:00:06.209Z,93088.00
2019-04-30T10:01:06.229Z,99232.00
2019-04-30T10:02:06.191Z,76704.00
2019-04-30T10:03:06.606Z,74720.00
2019-04-30T10:04:06.684Z,45248.00
2019-04-30T10:05:06.605Z,40480.00
2019-04-30T10:06:06.148Z,38592.00
2019-04-30T10:07:06.320Z,41056.00
2019-04-30T10:08:06.126Z,54368.00
2019-04-30T10:09:06.115Z,36352.00
2019-04-30T10:10:08.861Z,38720.00
2019-04-30T10:11:06.090Z,61024.00
2019-04-30T10:12:06.136Z,29600.00
2019-04-30T10:13:06.071Z,94016.00
2019-04-30T10:14:06.072Z,91104.00
2019-04-30T10:15:06.044Z,88992.00
2019-04-30T10:16:06.040Z,78080.00
2019-04-30T10:17:06.059Z,93536.00
2019-04-30T10:18:06.027Z,95200.00
2019-04-30T10:19:06.016Z,92288.00
2019-04-30T10:20:05.991Z,91776.00
2019-04-30T10:21:05.978Z,90240.00
2019-04-30T10:22:05.998Z,82048.00
2019-04-30T10:23:05.988Z,90176.00
2019-04-30T10:24:13.144Z,91520.00
2019-04-30T10:25:06.966Z,93312.00
2019-04-30T10:26:05.950Z,93856.00
2019-04-30T10:27:10.467Z,88192.00
2019-04-30T10:28:06.928Z,88096.00
2019-04-30T10:29:05.907Z,95168.00
2019-04-30T10:30:05.890Z,83520.00
2019-04-30T10:31:05.874Z,91904.00
2019-04-30T10:32:05.878Z,93376.00
2019-04-30T10:33:05.918Z,93312.00
2019-04-30T10:34:05.870Z,88928.00
2019-04-30T10:35:05.840Z,75616.00
2019-04-30T10:36:05.848Z,93472.00
2019-04-30T10:37:05.822Z,90144.00
2019-04-30T10:38:05.838Z,90272.00
2019-04-30T10:39:05.806Z,90304.00
2019-04-30T10:40:05.806Z,91392.00
2019-04-30T10:41:05.776Z,91904.00
2019-04-30T10:42:05.758Z,93536.00
2019-04-30T10:43:05.767Z,91712.00
2019-04-30T10:44:05.749Z,92384.00
2019-04-30T10:45:05.726Z,93728.00
2019-04-30T10:46:05.747Z,59872.00
2019-04-30T10:47:06.708Z,84160.00
2019-04-30T10:48:05.756Z,99712.00
2019-04-30T10:49:05.739Z,97312.00
2019-04-30T10:50:05.727Z,79552.00
2019-04-30T10:51:05.670Z,63136.00
2019-04-30T10:52:05.653Z,47808.00
2019-04-30T10:53:05.637Z,94848.00
2019-04-30T10:54:05.659Z,94688.00
2019-04-30T10:55:05.636Z,98304.00
2019-04-30T10:56:05.635Z,95808.00
2019-04-30T10:57:05.615Z,58560.00
2019-04-30T10:58:05.640Z,94336.00
2019-04-30T10:59:05.627Z,93280.00
2019-04-30T11:00:07.769Z,92320.00
2019-04-30T11:01:05.608Z,96032.00
2019-04-30T11:02:05.555Z,93280.00
2019-04-30T11:03:18.644Z,95744.00
2019-04-30T11:04:06.579Z,94304.00
2019-04-30T11:05:05.520Z,85184.00
2019-04-30T11:06:05.500Z,90848.00
2019-04-30T11:07:05.490Z,94944.00
2019-04-30T11:08:05.477Z,90688.00
2019-04-30T11:09:05.459Z,97056.00
2019-04-30T11:10:05.490Z,81984.00
2019-04-30T11:11:05.450Z,94816.00
2019-04-30T11:12:05.443Z,92576.00
2019-04-30T11:13:05.430Z,95424.00
2019-04-30T11:14:05.415Z,94208.00
2019-04-30T11:15:05.427Z,92736.00
2019-04-30T11:16:12.546Z,91744.00
2019-04-30T11:17:06.745Z,93792.00
2019-04-30T11:18:05.582Z,96448.00
2019-04-30T11:19:05.591Z,98304.00
2019-04-30T11:20:05.582Z,96672.00
2019-04-30T11:21:05.543Z,84128.00
2019-04-30T11:22:05.543Z,116576.00
2019-04-30T11:23:14.272Z,59584.00
2019-04-30T11:24:06.501Z,73760.00
2019-04-30T11:25:05.470Z,79936.00
2019-04-30T11:26:05.891Z,74912.00
2019-04-30T11:27:05.749Z,47392.00
2019-04-30T11:28:08.589Z,97984.00
2019-04-30T11:29:05.463Z,90656.00
2019-04-30T11:30:17.816Z,104128.00
2019-04-30T11:31:06.425Z,67584.00
2019-04-30T11:32:05.459Z,98976.00
2019-04-30T11:33:05.449Z,101888.00
2019-04-30T11:34:05.207Z,97056.00
2019-04-30T11:35:05.188Z,47328.00
2019-04-30T11:36:05.216Z,46720.00
2019-04-30T11:37:05.187Z,106464.00
2019-04-30T11:38:05.157Z,100768.00
2019-04-30T11:39:05.148Z,100352.00
2019-04-30T11:40:05.159Z,100288.00
2019-04-30T11:41:05.127Z,101184.00
2019-04-30T11:42:05.148Z,100000.00
2019-04-30T11:43:05.089Z,97632.00
2019-04-30T11:44:05.097Z,97664.00
2019-04-30T11:45:05.077Z,98336.00
2019-04-30T11:46:05.069Z,97024.00
2019-04-30T11:47:05.100Z,98464.00
2019-04-30T11:48:05.071Z,98272.00
2019-04-30T11:49:05.059Z,97696.00
2019-04-30T11:50:05.034Z,101632.00
2019-04-30T11:51:05.024Z,99264.00
2019-04-30T11:52:05.039Z,44864.00
2019-04-30T11:53:19.499Z,74624.00
2019-04-30T11:54:05.987Z,53536.00
2019-04-30T11:55:04.997Z,85088.00
2019-04-30T11:56:04.969Z,71936.00
2019-04-30T11:57:04.969Z,42464.00
2019-04-30T11:58:04.983Z,68480.00
2019-04-30T11:59:04.939Z,55456.00
2019-04-30T12:00:04.941Z,96512.00
2019-04-30T12:01:04.927Z,99744.00
2019-04-30T12:02:04.910Z,99040.00
2019-04-30T12:03:04.893Z,95904.00
2019-04-30T12:04:04.921Z,93920.00
2019-04-30T12:05:05.298Z,93568.00
2019-04-30T12:06:04.863Z,93024.00
2019-04-30T12:07:04.880Z,95680.00
2019-04-30T12:08:04.853Z,93952.00
2019-04-30T12:09:04.876Z,96224.00
2019-04-30T12:10:04.868Z,92672.00
2019-04-30T12:11:04.806Z,92224.00
2019-04-30T12:12:04.798Z,92576.00
2019-04-30T12:13:05.745Z,90368.00
2019-04-30T12:14:04.794Z,95264.00
2019-04-30T12:15:04.788Z,91104.00
2019-04-30T12:16:04.820Z,94816.00